Terminal Aerodrome Forecast
Issued by NWS Charleston, SC

Home | Current Version | Previous Version | Text Only | Print | Product List | Glossary On
Versions: 1 2 3 4 5 6 7 8 9 10 11 12 13 14
000
FTUS42 KCHS 290523
TAFSAV
TAF
KSAV 290523Z 2906/3006 17009KT P6SM FEW040 BKN080
      TEMPO 2907/2911 17004KT P6SM SCT009 BKN020
     FM291100 17005KT P6SM SCT009 BKN015
     FM291300 17008KT P6SM BKN060
     FM291700 16010G20KT P6SM SCT070
     FM300500 15007KT P6SM SCT015=

USA.gov is the U.S. government's official web portal to all federal, state and local government web resources and services.